Home > Products > Valid Products > TAF

000
FTUS41 KILN 301739
TAFCMH
TAF
KCMH 301739Z 3018/3118 20008KT P6SM VCTS BKN035CB
     FM310100 21004KT P6SM SCT040 SCT100 BKN250
     FM310900 21004KT 4SM BR FEW040 SCT100 SCT250
     FM311400 24005KT P6SM SCT020 SCT100=



000
FTUS41 KILN 301739
TAFLCK
TAF
KLCK 301739Z 3018/3118 20008KT P6SM VCTS BKN035CB
     FM310100 21004KT P6SM SCT040 SCT100 BKN250
     FM310800 21004KT 4SM BR FEW040 SCT100 SCT250
      TEMPO 3109/3112 2SM BR
     FM311400 24005KT P6SM SCT020 SCT100=



000
FTUS41 KILN 301739
TAFCVG
TAF
KCVG 301739Z 3018/3124 20008KT P6SM VCTS BKN035CB
     FM310100 20003KT P6SM SCT040 SCT100 BKN250
     FM310800 20003KT 4SM BR FEW040 SCT100 SCT250
     FM311400 24006KT P6SM FEW020 SCT100
     FM311800 24006KT P6SM SCT040=



000
FTUS41 KILN 301739
TAFLUK
TAF
KLUK 301739Z 3018/3118 20008KT P6SM VCTS BKN040CB
     FM310100 00000KT P6SM SCT045 SCT100 BKN250
     FM310400 00000KT 3SM BR SCT045 SCT100 BKN250
     FM310800 20003KT 1/4SM FG VV002
     FM311300 00000KT 2SM BR SCT002 SCT100 SCT250
     FM311400 24005KT P6SM FEW025 SCT100=



000
FTUS41 KILN 301739
TAFILN
TAF
KILN 301739Z 3018/3118 22007KT P6SM VCTS BKN035CB
     FM310100 21003KT P6SM SCT040 SCT100 BKN250
     FM310800 21004KT 4SM BR FEW040 SCT100 SCT250
      TEMPO 3109/3112 2SM BR
     FM311400 24006KT P6SM SCT020 SCT100=



000
FTUS41 KILN 301739
TAFDAY
TAF
KDAY 301739Z 3018/3118 22009KT P6SM VCTS BKN035CB
     FM310100 21004KT P6SM SCT040 SCT100 BKN250
     FM310900 21004KT 5SM BR FEW040 SCT100 SCT250
     FM311400 24006KT P6SM SCT020 SCT100=



000
FTUS41 KILN 301456 AAA
TAFCVG
TAF AMD
KCVG 301456Z 3015/3118 21008KT P6SM SCT025 SCT060 SCT150
     FM301800 20008KT P6SM VCSH BKN040
     FM310000 22003KT P6SM SCT150
      TEMPO 3108/3112 00000KT 3SM BR SKC
     FM311400 23005KT P6SM FEW025 SCT100=



000
FTUS41 KILN 301259 AAA
TAFLUK
TAF AMD
KLUK 301259Z 3013/3112 00000KT 5SM BR SCT060 SCT150
     FM301400 20004KT P6SM SCT025 SCT150
     FM301800 21007KT P6SM VCSH BKN040
     FM310000 22003KT P6SM SCT150
      TEMPO 3108/3112 00000KT 3SM BR SKC=



000
FTUS41 KILN 301259 AAA
TAFLUK
TAF AMD
KLUK 301259Z 3013/3112 00000KT 5SM BR SCT060 SCT150
     FM301400 20004KT P6SM SCT025 SCT150
     FM301800 21007KT P6SM VCSH BKN040
     FM310000 22003KT P6SM SCT150
      TEMPO 3108/3112 00000KT 3SM BR SKC=



000
FTUS41 KILN 301134
TAFCMH
TAF
KCMH 301134Z 3012/3112 18004KT P6SM BKN060 OVC120
      TEMPO 3012/3013 6SM -SHRA BR OVC060
     FM301800 21008KT P6SM VCSH BKN040
     FM310000 21004KT P6SM FEW030 SCT200
     FM310900 00000KT 5SM BR FEW020 SCT150=



000
FTUS41 KILN 301134
TAFCVG
TAF
KCVG 301134Z 3012/3118 20004KT P6SM SCT060 SCT150 BKN250
     FM301400 21008KT P6SM SCT025 BKN150
     FM301800 20008KT P6SM VCSH BKN040
     FM310000 22003KT P6SM SCT150
      TEMPO 3108/3112 00000KT 3SM BR SKC
     FM311400 23005KT P6SM FEW025 SCT100=



000
FTUS41 KILN 301134
TAFLCK
TAF
KLCK 301134Z 3012/3112 18004KT P6SM BKN060 OVC120
      TEMPO 3012/3013 6SM -SHRA BR OVC060
     FM301800 21008KT P6SM VCSH BKN040
     FM310000 21004KT P6SM FEW030 SCT200
     FM310900 00000KT 5SM BR FEW020 SCT150=



000
FTUS41 KILN 301134
TAFLUK
TAF
KLUK 301134Z 3012/3112 00000KT 2SM BR SCT002 SCT060 SCT150
      TEMPO 3012/3013 1/2SM FG BKN002
     FM301400 20004KT P6SM SCT025 SCT150
     FM301800 21007KT P6SM VCSH BKN040
     FM310000 22003KT P6SM SCT150
      TEMPO 3108/3112 00000KT 3SM BR SKC=



000
FTUS41 KILN 301134
TAFILN
TAF
KILN 301134Z 3012/3112 18005KT P6SM SCT060 BKN120
      TEMPO 3012/3013 4SM BR
     FM301400 22009KT P6SM SCT025 BKN120
     FM301800 21007KT P6SM VCSH BKN040
     FM310000 22005KT P6SM SCT035 SCT200
      TEMPO 3108/3112 4SM BR SKC=



000
FTUS41 KILN 301134
TAFDAY
TAF
KDAY 301134Z 3012/3112 21005KT P6SM SCT060 BKN120
     FM301400 22009KT P6SM SCT025 BKN120
     FM301800 22007KT P6SM VCSH BKN040
     FM310000 21004KT P6SM SCT035 SCT200
      TEMPO 3108/3112 4SM BR SCT100=



000
FTUS41 KILN 300956 AAA
TAFDAY
TAF AMD
KDAY 300956Z 3010/3106 18005KT P6SM SCT050 BKN120
      TEMPO 3010/3011 5SM -TSRA SCT050CB BKN100
     FM301400 22009KT P6SM BKN040
     FM302000 21007KT P6SM VCSH BKN040
     FM310000 22005KT P6SM SCT035 SCT200=



000
FTUS41 KILN 300857 AAA
TAFCVG
TAF AMD
KCVG 300857Z 3009/3112 20004KT P6SM SCT150 BKN250
      TEMPO 3009/3012 5SM BR SKC
     FM301400 21008KT P6SM FEW025 BKN070 OVC150
     FM301800 20008KT P6SM VCSH SCT040 BKN150
     FM302300 22003KT P6SM BKN150
     FM310500 22003KT P6SM BKN025
      TEMPO 3108/3112 4SM BR SKC=



000
FTUS41 KILN 300857 AAA
TAFCVG
TAF AMD
KCVG 300857Z 3009/3112 20004KT P6SM SCT150 BKN250
      TEMPO 3009/3012 5SM BR SKC
     FM301400 21008KT P6SM FEW025 BKN070 OVC150
     FM301800 20008KT P6SM VCSH SCT040 BKN150
     FM302300 22003KT P6SM BKN150
     FM310500 22003KT P6SM BKN025
      TEMPO 3108/3112 4SM BR SKC=



000
FTUS41 KILN 300832 AAB
TAFLUK
TAF AMD
KLUK 300832Z 3009/3106 20004KT 2SM BR SCT080 BKN200
      TEMPO 3009/3012 00000KT 1/2SM FG VV002
     FM301200 21008KT P6SM FEW030 BKN080 OVC150
     FM301800 20008KT P6SM VCSH SCT040 BKN150
     FM302300 22003KT P6SM BKN150
     FM310500 22003KT P6SM BKN030=



000
FTUS41 KILN 300739 AAA
TAFLUK
TAF AMD
KLUK 300739Z 3008/3106 20004KT 2SM BR SCT080 BKN200
      TEMPO 3008/3012 00000KT 1/2SM FG SKC
     FM301200 21008KT P6SM FEW030 BKN080 OVC150
     FM301800 20008KT P6SM VCSH SCT040 BKN150
     FM302300 22003KT P6SM BKN150
     FM310500 22003KT P6SM BKN030=



000
FTUS41 KILN 300739 AAA
TAFLUK
TAF AMD
KLUK 300739Z 3008/3106 20004KT 2SM BR SCT080 BKN200
      TEMPO 3008/3012 00000KT 1/2SM FG SKC
     FM301200 21008KT P6SM FEW030 BKN080 OVC150
     FM301800 20008KT P6SM VCSH SCT040 BKN150
     FM302300 22003KT P6SM BKN150
     FM310500 22003KT P6SM BKN030=



000
FTUS41 KILN 300540
TAFLCK
TAF
KLCK 300540Z 3006/3106 17004KT P6SM VCTS SCT050CB BKN070
      TEMPO 3006/3009 3SM -TSRA BKN040CB OVC070
     FM300900 17003KT P6SM SCT035 BKN080
      TEMPO 3009/3012 5SM BR
     FM301200 21006KT P6SM BKN040
     FM301900 21008KT P6SM VCSH BKN040
     FM310000 21004KT P6SM SCT030 SCT200=



000
FTUS41 KILN 300540
TAFCMH
TAF
KCMH 300540Z 3006/3106 17004KT P6SM VCTS SCT050CB BKN070
      TEMPO 3006/3009 3SM -TSRA BKN040CB OVC070
     FM300900 17003KT P6SM SCT035 BKN080
      TEMPO 3009/3012 5SM BR
     FM301200 21006KT P6SM BKN040
     FM301900 21008KT P6SM VCSH BKN040
     FM310000 21004KT P6SM SCT030 SCT200=



000
FTUS41 KILN 300540
TAFILN
TAF
KILN 300540Z 3006/3106 22008KT P6SM VCSH SCT040 BKN200
     FM300800 19005KT P6SM SCT030 BKN200
      TEMPO 3010/3012 5SM BR
     FM301400 22009KT P6SM BKN040
     FM302000 21007KT P6SM VCSH BKN040
     FM310000 22005KT P6SM SCT035 SCT200=



000
FTUS41 KILN 300540
TAFCVG
TAF
KCVG 300540Z 3006/3112 20004KT P6SM SCT070 BKN150
      TEMPO 3009/3012 5SM BR
     FM301400 21008KT P6SM FEW025 BKN070 OVC150
     FM301800 20008KT P6SM VCSH SCT040 BKN150
     FM302300 22003KT P6SM BKN150
     FM310500 22003KT P6SM BKN025
      TEMPO 3108/3112 4SM BR SKC=



000
FTUS41 KILN 300540
TAFILN
TAF
KILN 300540Z 3006/3106 22008KT P6SM VCSH SCT040 BKN200
     FM300800 19005KT P6SM SCT030 BKN200
      TEMPO 3010/3012 5SM BR
     FM301400 22009KT P6SM BKN040
     FM302000 21007KT P6SM VCSH BKN040
     FM310000 22005KT P6SM SCT035 SCT200=



000
FTUS41 KILN 300540
TAFLUK
TAF
KLUK 300540Z 3006/3106 20004KT 4SM BR SCT080 BKN200
      TEMPO 3008/3012 1SM BR SKC
     FM301200 21008KT P6SM FEW030 BKN080 OVC150
     FM301800 20008KT P6SM VCSH SCT040 BKN150
     FM302300 22003KT P6SM BKN150
     FM310500 22003KT P6SM BKN030=



000
FTUS41 KILN 300540
TAFCMH
TAF
KCMH 300540Z 3006/3106 17004KT P6SM VCTS SCT050CB BKN070
      TEMPO 3006/3009 3SM -TSRA BKN040CB OVC070
     FM300900 17003KT P6SM SCT035 BKN080
      TEMPO 3009/3012 5SM BR
     FM301200 21006KT P6SM BKN040
     FM301900 21008KT P6SM VCSH BKN040
     FM310000 21004KT P6SM SCT030 SCT200=



000
FTUS41 KILN 300540
TAFDAY
TAF
KDAY 300540Z 3006/3106 22008KT P6SM -SHRA SCT040 BKN200
      TEMPO 3006/3008 4SM -TSRA BR BKN035CB
     FM300800 19005KT P6SM SCT030 BKN200
      TEMPO 3010/3012 5SM BR
     FM301400 22009KT P6SM BKN040
     FM302000 21007KT P6SM VCSH BKN040
     FM310000 22005KT P6SM SCT035 SCT200=



000
FTUS41 KILN 300540
TAFLCK
TAF
KLCK 300540Z 3006/3106 17004KT P6SM VCTS SCT050CB BKN070
      TEMPO 3006/3009 3SM -TSRA BKN040CB OVC070
     FM300900 17003KT P6SM SCT035 BKN080
      TEMPO 3009/3012 5SM BR
     FM301200 21006KT P6SM BKN040
     FM301900 21008KT P6SM VCSH BKN040
     FM310000 21004KT P6SM SCT030 SCT200=



000
FTUS41 KILN 300503 AAA
TAFLCK
TAF AMD
KLCK 300503Z 3005/3024 17004KT P6SM VCTS SCT050CB BKN070
      TEMPO 3009/3012 5SM BR BKN050
     FM301200 21006KT P6SM BKN040
     FM301900 21008KT P6SM VCSH BKN040=



000
FTUS41 KILN 300503 AAA
TAFLCK
TAF AMD
KLCK 300503Z 3005/3024 17004KT P6SM VCTS SCT050CB BKN070
      TEMPO 3009/3012 5SM BR BKN050
     FM301200 21006KT P6SM BKN040
     FM301900 21008KT P6SM VCSH BKN040=



000
FTUS41 KILN 300503 AAA
TAFCMH
TAF AMD
KCMH 300503Z 3005/3024 17004KT P6SM VCTS SCT050CB BKN070
      TEMPO 3009/3012 5SM BR BKN050
     FM301200 21006KT P6SM BKN040
     FM301900 21008KT P6SM VCSH BKN040=



000
FTUS41 KILN 300503 AAA
TAFCMH
TAF AMD
KCMH 300503Z 3005/3024 17004KT P6SM VCTS SCT050CB BKN070
      TEMPO 3009/3012 5SM BR BKN050
     FM301200 21006KT P6SM BKN040
     FM301900 21008KT P6SM VCSH BKN040=



000
FTUS41 KILN 300345 AAA
TAFLUK
TAF AMD
KLUK 300345Z 3004/3024 00000KT 4SM BR BKN200
      TEMPO 3008/3012 2SM BR SCT200
     FM301400 21008KT P6SM BKN040
     FM301800 20008KT P6SM VCSH BKN040=



000
FTUS41 KILN 292320
TAFLCK
TAF
KLCK 292320Z 3000/3024 21008KT P6SM VCSH SCT040 BKN100
     FM300300 17004KT P6SM VCSH SCT040 BKN150
      TEMPO 3009/3012 5SM BR
     FM301400 21006KT P6SM BKN040
     FM301900 21008KT P6SM VCSH BKN040=



000
FTUS41 KILN 292320
TAFLUK
TAF
KLUK 292320Z 3000/3024 00000KT P6SM SCT045 BKN150
     FM300700 00000KT 4SM BR SCT045 BKN150
      TEMPO 3009/3012 2SM BR
     FM301400 21008KT P6SM BKN040
     FM301800 20008KT P6SM VCSH BKN040=



000
FTUS41 KILN 292320
TAFCVG
TAF
KCVG 292320Z 3000/3106 18004KT P6SM SCT040 BKN150
      TEMPO 3009/3012 5SM BR
     FM301400 21008KT P6SM BKN040
     FM301800 20008KT P6SM VCSH BKN040
     FM310100 19004KT P6SM SCT050 BKN150=



000
FTUS41 KILN 292320
TAFILN
TAF
KILN 292320Z 3000/3024 18004KT P6SM SCT040 BKN150
      TEMPO 3009/3012 5SM BR
     FM301400 22006KT P6SM BKN040
     FM301800 21008KT P6SM VCSH BKN040=



000
FTUS41 KILN 292320
TAFLUK
TAF
KLUK 292320Z 3000/3024 00000KT P6SM SCT045 BKN150
     FM300700 00000KT 4SM BR SCT045 BKN150
      TEMPO 3009/3012 2SM BR
     FM301400 21008KT P6SM BKN040
     FM301800 20008KT P6SM VCSH BKN040=



000
FTUS41 KILN 292320
TAFCVG
TAF
KCVG 292320Z 3000/3106 18004KT P6SM SCT040 BKN150
      TEMPO 3009/3012 5SM BR
     FM301400 21008KT P6SM BKN040
     FM301800 20008KT P6SM VCSH BKN040
     FM310100 19004KT P6SM SCT050 BKN150=



000
FTUS41 KILN 292320
TAFDAY
TAF
KDAY 292320Z 3000/3024 22008KT P6SM VCSH SCT040 BKN100
     FM300600 19005KT P6SM SCT040 BKN150
     FM301400 22008KT P6SM BKN040
     FM301800 21008KT P6SM VCSH BKN040=



000
FTUS41 KILN 292320
TAFCMH
TAF
KCMH 292320Z 3000/3024 21008KT P6SM VCSH SCT040 BKN100
     FM300300 17004KT P6SM VCSH SCT040 BKN150
      TEMPO 3009/3012 5SM BR
     FM301400 21006KT P6SM BKN040
     FM301900 21008KT P6SM VCSH BKN040=



000
FTUS41 KILN 292320
TAFDAY
TAF
KDAY 292320Z 3000/3024 22008KT P6SM VCSH SCT040 BKN100
     FM300600 19005KT P6SM SCT040 BKN150
     FM301400 22008KT P6SM BKN040
     FM301800 21008KT P6SM VCSH BKN040=



000
FTUS41 KILN 292320
TAFLCK
TAF
KLCK 292320Z 3000/3024 21008KT P6SM VCSH SCT040 BKN100
     FM300300 17004KT P6SM VCSH SCT040 BKN150
      TEMPO 3009/3012 5SM BR
     FM301400 21006KT P6SM BKN040
     FM301900 21008KT P6SM VCSH BKN040=



000
FTUS41 KILN 292320
TAFILN
TAF
KILN 292320Z 3000/3024 18004KT P6SM SCT040 BKN150
      TEMPO 3009/3012 5SM BR
     FM301400 22006KT P6SM BKN040
     FM301800 21008KT P6SM VCSH BKN040=



000
FTUS41 KILN 292320
TAFCMH
TAF
KCMH 292320Z 3000/3024 21008KT P6SM VCSH SCT040 BKN100
     FM300300 17004KT P6SM VCSH SCT040 BKN150
      TEMPO 3009/3012 5SM BR
     FM301400 21006KT P6SM BKN040
     FM301900 21008KT P6SM VCSH BKN040=



000
FTUS41 KILN 292156 AAA
TAFLCK
TAF AMD
KLCK 292156Z 2922/3018 22008KT P6SM VCTS BKN040CB
      TEMPO 2922/2924 5SM -SHRA BKN035
     FM300000 17004KT P6SM SCT040 BKN150
     FM301400 21007KT P6SM BKN040=



000
FTUS41 KILN 292156 AAA
TAFCMH
TAF AMD
KCMH 292156Z 2922/3018 22008KT P6SM VCTS BKN040CB
      TEMPO 2922/2924 5SM -SHRA BKN035
     FM300000 17004KT P6SM SCT040 BKN150
     FM301400 21007KT P6SM BKN040=



000
FTUS41 KILN 292020 AAA
TAFCVG
TAF AMD
KCVG 292020Z 2920/3024 21010KT P6SM VCTS BKN040CB
      TEMPO 2920/2921 23015G25KT 4SM -TSRA BKN025CB
     FM300000 18004KT P6SM SCT040 BKN150
     FM301400 20008KT P6SM BKN040
     FM301800 20008KT P6SM VCSH BKN040=



000
FTUS41 KILN 291743
TAFCVG
TAF
KCVG 291743Z 2918/3024 21010KT P6SM VCTS BKN040CB
     FM300000 18004KT P6SM SCT040 BKN150
     FM301400 20008KT P6SM BKN040
     FM301800 20008KT P6SM VCSH BKN040=



000
FTUS41 KILN 291743
TAFILN
TAF
KILN 291743Z 2918/3018 22010KT P6SM VCTS BKN040CB
     FM300000 19005KT P6SM SCT040 BKN150
     FM301400 22008KT P6SM BKN040=



000
FTUS41 KILN 291743
TAFCMH
TAF
KCMH 291743Z 2918/3018 22008KT P6SM VCTS BKN040CB
     FM300000 17004KT P6SM SCT040 BKN150
     FM301400 21007KT P6SM BKN040=



000
FTUS41 KILN 291743
TAFLCK
TAF
KLCK 291743Z 2918/3018 22008KT P6SM VCTS BKN040CB
     FM300000 17004KT P6SM SCT040 BKN150
     FM301400 21007KT P6SM BKN040=



000
FTUS41 KILN 291743
TAFLUK
TAF
KLUK 291743Z 2918/3018 20008KT P6SM VCTS BKN045CB
     FM300000 00000KT P6SM SCT045 BKN150
     FM300800 00000KT 4SM BR SCT045 BKN150
     FM301400 20008KT P6SM BKN040=



000
FTUS41 KILN 291743
TAFDAY
TAF
KDAY 291743Z 2918/3018 22010KT P6SM VCTS BKN040CB
     FM300000 20005KT P6SM SCT040 BKN150
     FM301400 22008KT P6SM BKN040=



000
FTUS41 KILN 291417 AAA
TAFCMH
TAF AMD
KCMH 291417Z 2914/3012 18006KT P6SM SCT060 BKN200
     FM291600 21007KT P6SM VCSH BKN040
     FM292200 13003KT P6SM VCSH SCT050 OVC150=



000
FTUS41 KILN 291417 AAA
TAFCVG
TAF AMD
KCVG 291417Z 2914/3018 20008KT P6SM SCT060
     FM291600 21008KT P6SM VCSH BKN040
     FM300000 18004KT P6SM VCSH SCT035 OVC150
     FM301400 22006KT P6SM VCSH SCT030 BKN080=



000
FTUS41 KILN 291417 AAA
TAFLCK
TAF AMD
KLCK 291417Z 2914/3012 18006KT P6SM SCT060 BKN200
     FM291600 21007KT P6SM VCSH BKN040
     FM292200 13003KT P6SM VCSH SCT050 OVC150=



000
FTUS41 KILN 291417 AAA
TAFDAY
TAF AMD
KDAY 291417Z 2914/3012 22008KT P6SM SCT060 BKN200
     FM291600 22010KT P6SM VCSH BKN040
     FM300200 18005KT P6SM VCSH BKN035 BKN090=



000
FTUS41 KILN 291417 AAA
TAFLUK
TAF AMD
KLUK 291417Z 2914/3012 18006KT P6SM SCT060
     FM291600 21008KT P6SM VCSH BKN045
     FM300000 16003KT P6SM VCSH SCT045 OVC150=



000
FTUS41 KILN 291417 AAA
TAFILN
TAF AMD
KILN 291417Z 2914/3012 22008KT P6SM SCT060
     FM291600 22010KT P6SM VCSH BKN040
     FM300200 18005KT P6SM VCSH BKN035 BKN090=



000
FTUS41 KILN 291417 AAA
TAFDAY
TAF AMD
KDAY 291417Z 2914/3012 22008KT P6SM SCT060 BKN200
     FM291600 22010KT P6SM VCSH BKN040
     FM300200 18005KT P6SM VCSH BKN035 BKN090=



000
FTUS41 KILN 291417 AAA
TAFCMH
TAF AMD
KCMH 291417Z 2914/3012 18006KT P6SM SCT060 BKN200
     FM291600 21007KT P6SM VCSH BKN040
     FM292200 13003KT P6SM VCSH SCT050 OVC150=



000
FTUS41 KILN 291417 AAA
TAFLCK
TAF AMD
KLCK 291417Z 2914/3012 18006KT P6SM SCT060 BKN200
     FM291600 21007KT P6SM VCSH BKN040
     FM292200 13003KT P6SM VCSH SCT050 OVC150=



000
FTUS41 KILN 291417 AAA
TAFILN
TAF AMD
KILN 291417Z 2914/3012 22008KT P6SM SCT060
     FM291600 22010KT P6SM VCSH BKN040
     FM300200 18005KT P6SM VCSH BKN035 BKN090=



000
FTUS41 KILN 291417 AAA
TAFLUK
TAF AMD
KLUK 291417Z 2914/3012 18006KT P6SM SCT060
     FM291600 21008KT P6SM VCSH BKN045
     FM300000 16003KT P6SM VCSH SCT045 OVC150=



000
FTUS41 KILN 291417 AAA
TAFCVG
TAF AMD
KCVG 291417Z 2914/3018 20008KT P6SM SCT060
     FM291600 21008KT P6SM VCSH BKN040
     FM300000 18004KT P6SM VCSH SCT035 OVC150
     FM301400 22006KT P6SM VCSH SCT030 BKN080=



000
FTUS41 KILN 291138
TAFLCK
TAF
KLCK 291138Z 2912/3012 00000KT P6SM SCT060 BKN200
     FM291400 18005KT P6SM SCT045 BKN200
      TEMPO 2918/2922 21007KT BKN040 OVC200
     FM292200 13003KT P6SM VCSH SCT050 OVC150=



000
FTUS41 KILN 291138
TAFCVG
TAF
KCVG 291138Z 2912/3018 13004KT P6SM SCT060 BKN200
     FM291500 21007KT P6SM BKN040 BKN200
     FM300000 18004KT P6SM VCSH SCT035 OVC150
     FM301400 22006KT P6SM VCSH SCT030 BKN080=



000
FTUS41 KILN 291138
TAFLUK
TAF
KLUK 291138Z 2912/3012 00000KT P6SM SCT060 BKN200
      TEMPO 2912/2913 4SM BR
     FM291500 21006KT P6SM BKN045 BKN200
     FM300000 16003KT P6SM VCSH SCT045 OVC150=



000
FTUS41 KILN 291138
TAFDAY
TAF
KDAY 291138Z 2912/3012 15005KT P6SM BKN060 OVC200
     FM291400 22008KT P6SM BKN040 OVC150
     FM292000 22008KT P6SM VCSH BKN040 OVC120
     FM300200 18005KT P6SM VCSH BKN035 BKN090=



000
FTUS41 KILN 291138
TAFILN
TAF
KILN 291138Z 2912/3012 15005KT P6SM SCT060 OVC200
     FM291400 22008KT P6SM BKN040 OVC150
     FM292000 22008KT P6SM VCSH BKN040 OVC120
     FM300200 18005KT P6SM VCSH BKN035 BKN090=



000
FTUS41 KILN 291138
TAFCMH
TAF
KCMH 291138Z 2912/3012 00000KT P6SM SCT060 BKN200
     FM291400 18005KT P6SM SCT045 BKN200
      TEMPO 2918/2922 21007KT BKN040 OVC200
     FM292200 13003KT P6SM VCSH SCT050 OVC150=



000
FTUS41 KILN 291120
TAFCVG
TAF
KCVG 291120Z 2912/3018 13004KT P6SM OVC250
     FM291400 21007KT P6SM SCT040 OVC200
     FM300000 18004KT P6SM BKN040 OVC150
      TEMPO 3005/3007 -SHRA BKN030=



000
FTUS41 KILN 291120
TAFCVG
TAF
KCVG 291120Z 2912/3018 13004KT P6SM OVC250
     FM291400 21007KT P6SM SCT040 OVC200
     FM300000 18004KT P6SM BKN040 OVC150
      TEMPO 3005/3007 -SHRA BKN030=



000
FTUS41 KILN 290625 AAA
TAFLUK
TAF AMD
KLUK 290625Z 2906/3006 00000KT P6SM SCT250
      TEMPO 2908/2912 3SM BR
     FM291400 21007KT P6SM SCT045 BKN200
     FM300000 18004KT P6SM BKN045 OVC150
      TEMPO 3005/3006 -SHRA BKN030=



000
FTUS41 KILN 290625 AAA
TAFLUK
TAF AMD
KLUK 290625Z 2906/3006 00000KT P6SM SCT250
      TEMPO 2908/2912 3SM BR
     FM291400 21007KT P6SM SCT045 BKN200
     FM300000 18004KT P6SM BKN045 OVC150
      TEMPO 3005/3006 -SHRA BKN030=



000
FTUS41 KILN 290537
TAFDAY
TAF
KDAY 290537Z 2906/3006 15005KT P6SM BKN250
     FM291100 20007KT P6SM BKN050 OVC220
     FM291800 23008KT P6SM BKN040 OVC150
      TEMPO 2920/2924 -RA
     FM300000 19004KT P6SM VCSH BKN035 OVC120=



000
FTUS41 KILN 290537
TAFCVG
TAF
KCVG 290537Z 2906/3012 13004KT P6SM SCT250
     FM291400 21007KT P6SM SCT040 BKN200
     FM300000 18004KT P6SM BKN040 OVC150
      TEMPO 3005/3007 -SHRA BKN030=



000
FTUS41 KILN 290537
TAFLUK
TAF
KLUK 290537Z 2906/3006 00000KT 5SM BR SCT250
      TEMPO 2908/2911 2SM BR
     FM291400 21007KT P6SM SCT045 BKN200
     FM300000 18004KT P6SM BKN045 OVC150
      TEMPO 3005/3006 -SHRA BKN030=



000
FTUS41 KILN 290537
TAFLCK
TAF
KLCK 290537Z 2906/3006 14006KT P6SM SCT250
     FM291300 18005KT P6SM SCT045 BKN200
      TEMPO 2918/2922 21007KT BKN040 OVC180
     FM292200 16004KT P6SM VCSH BKN040 OVC150=



000
FTUS41 KILN 290537
TAFCMH
TAF
KCMH 290537Z 2906/3006 14006KT P6SM SCT250
     FM291300 18005KT P6SM SCT045 BKN200
      TEMPO 2918/2922 21007KT BKN040 OVC180
     FM292200 16004KT P6SM VCSH BKN040 OVC150=



000
FTUS41 KILN 290537
TAFILN
TAF
KILN 290537Z 2906/3006 15005KT P6SM BKN250
     FM291100 20007KT P6SM BKN050 OVC220
     FM291800 23008KT P6SM BKN040 OVC150
      TEMPO 2920/2924 -RA
     FM300000 19004KT P6SM VCSH BKN035 OVC120=



000
FTUS41 KILN 290257 AAA
TAFLCK
TAF AMD
KLCK 290257Z 2903/2924 13004KT P6SM BKN220
     FM291300 15004KT P6SM SCT040 BKN200
     FM291600 20007KT P6SM BKN040=



000
FTUS41 KILN 290257 AAA
TAFDAY
TAF AMD
KDAY 290257Z 2903/2924 10003KT P6SM BKN200
     FM291400 20007KT P6SM BKN040 OVC220=



000
FTUS41 KILN 290257 AAA
TAFCVG
TAF AMD
KCVG 290257Z 2903/3006 12004KT P6SM BKN250
     FM291400 20006KT P6SM SCT040 BKN200
     FM291600 21008KT P6SM BKN040
     FM300000 16004KT P6SM BKN040=



000
FTUS41 KILN 290257 AAA
TAFILN
TAF AMD
KILN 290257Z 2903/2924 10003KT P6SM BKN250
     FM291400 20007KT P6SM SCT040 BKN200
     FM291600 21010KT P6SM BKN040=



000
FTUS41 KILN 290257 AAA
TAFLUK
TAF AMD
KLUK 290257Z 2903/2924 00000KT P6SM BKN250
     FM290400 00000KT 5SM BR SCT040 BKN200
      TEMPO 2908/2911 2SM BR
     FM291400 20006KT P6SM SCT040 BKN200
     FM291600 22008KT P6SM BKN040=



000
FTUS41 KILN 290257 AAA
TAFCMH
TAF AMD
KCMH 290257Z 2903/2924 00000KT P6SM BKN220
     FM291300 15004KT P6SM SCT040 BKN200
     FM291600 20007KT P6SM BKN040=



000
FTUS41 KILN 290257 AAA
TAFLUK
TAF AMD
KLUK 290257Z 2903/2924 00000KT P6SM BKN250
     FM290400 00000KT 5SM BR SCT040 BKN200
      TEMPO 2908/2911 2SM BR
     FM291400 20006KT P6SM SCT040 BKN200
     FM291600 22008KT P6SM BKN040=



000
FTUS41 KILN 290257 AAA
TAFCMH
TAF AMD
KCMH 290257Z 2903/2924 00000KT P6SM BKN220
     FM291300 15004KT P6SM SCT040 BKN200
     FM291600 20007KT P6SM BKN040=



000
FTUS41 KILN 290257 AAA
TAFILN
TAF AMD
KILN 290257Z 2903/2924 10003KT P6SM BKN250
     FM291400 20007KT P6SM SCT040 BKN200
     FM291600 21010KT P6SM BKN040=



000
FTUS41 KILN 290257 AAA
TAFCVG
TAF AMD
KCVG 290257Z 2903/3006 12004KT P6SM BKN250
     FM291400 20006KT P6SM SCT040 BKN200
     FM291600 21008KT P6SM BKN040
     FM300000 16004KT P6SM BKN040=



000
FTUS41 KILN 290257 AAA
TAFDAY
TAF AMD
KDAY 290257Z 2903/2924 10003KT P6SM BKN200
     FM291400 20007KT P6SM BKN040 OVC220=



000
FTUS41 KILN 290257 AAA
TAFLCK
TAF AMD
KLCK 290257Z 2903/2924 13004KT P6SM BKN220
     FM291300 15004KT P6SM SCT040 BKN200
     FM291600 20007KT P6SM BKN040=



000
FTUS41 KILN 282331
TAFCVG
TAF
KCVG 282331Z 2900/3006 13004KT P6SM BKN250
     FM291400 20006KT P6SM SCT040 BKN200
     FM291600 21008KT P6SM BKN040
     FM300000 16004KT P6SM BKN040=



000
FTUS41 KILN 282331
TAFCMH
TAF
KCMH 282331Z 2900/2924 00000KT P6SM FEW060 BKN220
     FM291300 15004KT P6SM SCT040 BKN200
     FM291600 20007KT P6SM BKN040=



000
FTUS41 KILN 282331
TAFLCK
TAF
KLCK 282331Z 2900/2924 00000KT P6SM BKN220
     FM291300 15004KT P6SM SCT040 BKN200
     FM291600 20007KT P6SM BKN040=



000
FTUS41 KILN 282331
TAFDAY
TAF
KDAY 282331Z 2900/2924 09004KT P6SM FEW050 BKN250
     FM291400 20007KT P6SM BKN040 OVC220=



000
FTUS41 KILN 282331
TAFLUK
TAF
KLUK 282331Z 2900/2924 11003KT P6SM BKN250
     FM290900 00000KT 5SM BR SCT040 BKN200
     FM291400 20006KT P6SM SCT040 BKN200
     FM291600 22008KT P6SM BKN040=



000
FTUS41 KILN 282331
TAFILN
TAF
KILN 282331Z 2900/2924 00000KT P6SM BKN250
     FM291400 20007KT P6SM SCT040 BKN200
     FM291600 21010KT P6SM BKN040=



000
FTUS41 KILN 282057 AAA
TAFLCK
TAF AMD
KLCK 282057Z 2821/2918 18003KT P6SM SKC
     FM290000 09004KT P6SM BKN250
     FM291300 15004KT P6SM SCT040 BKN200
     FM291600 19007KT P6SM BKN040=



000
FTUS41 KILN 282057 AAA
TAFLUK
TAF AMD
KLUK 282057Z 2821/2918 21006KT P6SM FEW050 BKN250
     FM290000 00000KT P6SM BKN250
     FM290900 00000KT 5SM BR SCT040 BKN200
     FM291400 20006KT P6SM SCT040 BKN200
     FM291600 21008KT P6SM BKN040=



000
FTUS41 KILN 282057 AAA
TAFCVG
TAF AMD
KCVG 282057Z 2821/2924 14009KT P6SM FEW040 BKN250
     FM290000 11004KT P6SM BKN250
     FM290900 14004KT P6SM SCT040 BKN200
     FM291400 20006KT P6SM SCT040 BKN200
     FM291600 21008KT P6SM BKN040=



000
FTUS41 KILN 282057 AAA
TAFDAY
TAF AMD
KDAY 282057Z 2821/2918 VRB05KT P6SM FEW050 BKN250
     FM290000 11004KT P6SM BKN250
     FM291100 14004KT P6SM SCT040 BKN200
     FM291400 20007KT P6SM SCT040 BKN200
     FM291600 21010KT P6SM BKN040=



000
FTUS41 KILN 282057 AAA
TAFILN
TAF AMD
KILN 282057Z 2821/2918 14005KT P6SM FEW050 BKN250
     FM290000 11004KT P6SM BKN250
     FM291100 14004KT P6SM SCT040 BKN200
     FM291400 20007KT P6SM SCT040 BKN200
     FM291600 21010KT P6SM BKN040=



000
FTUS41 KILN 282057 AAA
TAFCMH
TAF AMD
KCMH 282057Z 2821/2918 11004KT P6SM FEW060 BKN250
     FM290000 09004KT P6SM BKN250
     FM291300 15004KT P6SM SCT040 BKN200
     FM291600 19007KT P6SM BKN040=



000
FTUS41 KILN 281742
TAFCVG
TAF
KCVG 281742Z 2818/2924 13004KT P6SM FEW050 SCT250
     FM290000 11004KT P6SM BKN250
     FM290900 14004KT P6SM SCT040 BKN200
     FM291400 20006KT P6SM SCT040 BKN200
     FM291600 21008KT P6SM BKN040=



000
FTUS41 KILN 281742
TAFILN
TAF
KILN 281742Z 2818/2918 13005KT P6SM SCT050 BKN250
     FM290000 11004KT P6SM BKN250
     FM291100 14004KT P6SM SCT040 BKN200
     FM291400 20007KT P6SM SCT040 BKN200
     FM291600 21010KT P6SM BKN040=



000
FTUS41 KILN 281742
TAFLCK
TAF
KLCK 281742Z 2818/2918 12004KT P6SM SCT050
     FM290000 09004KT P6SM BKN250
     FM291300 15004KT P6SM SCT040 BKN200
     FM291600 19007KT P6SM BKN040=



000
FTUS41 KILN 281742
TAFLUK
TAF
KLUK 281742Z 2818/2918 13004KT P6SM FEW050 SCT250
     FM290000 00000KT P6SM BKN250
     FM290900 00000KT 5SM BR SCT040 BKN200
     FM291400 20006KT P6SM SCT040 BKN200
     FM291600 21008KT P6SM BKN040=



000
FTUS41 KILN 281742
TAFDAY
TAF
KDAY 281742Z 2818/2918 13005KT P6SM SCT050 BKN250
     FM290000 11004KT P6SM BKN250
     FM291100 14004KT P6SM SCT040 BKN200
     FM291400 20007KT P6SM SCT040 BKN200
     FM291600 21010KT P6SM BKN040=



000
FTUS41 KILN 281742
TAFCMH
TAF
KCMH 281742Z 2818/2918 12004KT P6SM SCT050
     FM290000 09004KT P6SM BKN250
     FM291300 15004KT P6SM SCT040 BKN200
     FM291600 19007KT P6SM BKN040=



000
FTUS41 KILN 281742
TAFCVG
TAF
KCVG 281742Z 2818/2924 13004KT P6SM FEW050 SCT250
     FM290000 11004KT P6SM BKN250
     FM290900 14004KT P6SM SCT040 BKN200
     FM291400 20006KT P6SM SCT040 BKN200
     FM291600 21008KT P6SM BKN040=



000
FTUS41 KILN 281742
TAFLUK
TAF
KLUK 281742Z 2818/2918 13004KT P6SM FEW050 SCT250
     FM290000 00000KT P6SM BKN250
     FM290900 00000KT 5SM BR SCT040 BKN200
     FM291400 20006KT P6SM SCT040 BKN200
     FM291600 21008KT P6SM BKN040=



000
FTUS41 KILN 281742
TAFDAY
TAF
KDAY 281742Z 2818/2918 13005KT P6SM SCT050 BKN250
     FM290000 11004KT P6SM BKN250
     FM291100 14004KT P6SM SCT040 BKN200
     FM291400 20007KT P6SM SCT040 BKN200
     FM291600 21010KT P6SM BKN040=



000
FTUS41 KILN 281742
TAFLCK
TAF
KLCK 281742Z 2818/2918 12004KT P6SM SCT050
     FM290000 09004KT P6SM BKN250
     FM291300 15004KT P6SM SCT040 BKN200
     FM291600 19007KT P6SM BKN040=



000
FTUS41 KILN 281742
TAFCMH
TAF
KCMH 281742Z 2818/2918 12004KT P6SM SCT050
     FM290000 09004KT P6SM BKN250
     FM291300 15004KT P6SM SCT040 BKN200
     FM291600 19007KT P6SM BKN040=



000
FTUS41 KILN 281742
TAFILN
TAF
KILN 281742Z 2818/2918 13005KT P6SM SCT050 BKN250
     FM290000 11004KT P6SM BKN250
     FM291100 14004KT P6SM SCT040 BKN200
     FM291400 20007KT P6SM SCT040 BKN200
     FM291600 21010KT P6SM BKN040=



000
FTUS41 KILN 281455 AAB
TAFCVG
TAF AMD
KCVG 281455Z 2815/2918 12004KT P6SM SCT250
     FM290000 10004KT P6SM SCT250
     FM290600 12004KT P6SM BKN180 OVC250
      TEMPO 2910/2914 16005KT BKN050
     FM291400 20006KT P6SM SCT030 BKN200=



000
FTUS41 KILN 281455 AAB
TAFCVG
TAF AMD
KCVG 281455Z 2815/2918 12004KT P6SM SCT250
     FM290000 10004KT P6SM SCT250
     FM290600 12004KT P6SM BKN180 OVC250
      TEMPO 2910/2914 16005KT BKN050
     FM291400 20006KT P6SM SCT030 BKN200=



000
FTUS41 KILN 281316 AAA
TAFCMH
TAF AMD
KCMH 281316Z 2813/2912 12005KT P6SM SCT250
     FM290400 14005KT P6SM SCT150 BKN250=



000
FTUS41 KILN 281316 AAA
TAFLCK
TAF AMD
KLCK 281316Z 2813/2912 12005KT P6SM SCT250
     FM290400 14005KT P6SM SCT150 BKN250=



000
FTUS41 KILN 281316 AAA
TAFDAY
TAF AMD
KDAY 281316Z 2813/2912 13006KT P6SM SCT250
     FM290400 14005KT P6SM SCT150 BKN250=



000
FTUS41 KILN 281316 AAA
TAFILN
TAF AMD
KILN 281316Z 2813/2912 14005KT P6SM SCT250
     FM290400 14005KT P6SM SCT150 BKN250=



000
FTUS41 KILN 281316 AAA
TAFCVG
TAF AMD
KCVG 281316Z 2813/2918 12004KT P6SM SCT250
     FM290000 10004KT P6SM SCT250
     FM290600 12004KT P6SM BKN180 OVC250
      TEMPO 2910/2914 16005KT BKN050
     FM291400 20006KT P6SM SCT030 BKN200=



000
FTUS41 KILN 281316 AAA
TAFLUK
TAF AMD
KLUK 281316Z 2813/2912 12004KT P6SM SCT250
     FM290000 00000KT P6SM SCT250
      TEMPO 2910/2912 16005KT BKN050=



000
FTUS41 KILN 281316 AAA
TAFDAY
TAF AMD
KDAY 281316Z 2813/2912 13006KT P6SM SCT250
     FM290400 14005KT P6SM SCT150 BKN250=



000
FTUS41 KILN 281316 AAA
TAFLCK
TAF AMD
KLCK 281316Z 2813/2912 12005KT P6SM SCT250
     FM290400 14005KT P6SM SCT150 BKN250=



000
FTUS41 KILN 281316 AAA
TAFLUK
TAF AMD
KLUK 281316Z 2813/2912 12004KT P6SM SCT250
     FM290000 00000KT P6SM SCT250
      TEMPO 2910/2912 16005KT BKN050=



000
FTUS41 KILN 281316 AAA
TAFILN
TAF AMD
KILN 281316Z 2813/2912 14005KT P6SM SCT250
     FM290400 14005KT P6SM SCT150 BKN250=



000
FTUS41 KILN 281316 AAA
TAFCMH
TAF AMD
KCMH 281316Z 2813/2912 12005KT P6SM SCT250
     FM290400 14005KT P6SM SCT150 BKN250=



000
FTUS41 KILN 281316 AAA
TAFCVG
TAF AMD
KCVG 281316Z 2813/2918 12004KT P6SM SCT250
     FM290000 10004KT P6SM SCT250
     FM290600 12004KT P6SM BKN180 OVC250
      TEMPO 2910/2914 16005KT BKN050
     FM291400 20006KT P6SM SCT030 BKN200=



000
FTUS41 KILN 281137
TAFLUK
TAF
KLUK 281137Z 2812/2912 12004KT P6SM SCT250
      TEMPO 2812/2813 3SM BR
     FM290000 00000KT P6SM SCT250
      TEMPO 2910/2912 16005KT BKN050=



000
FTUS41 KILN 281137
TAFDAY
TAF
KDAY 281137Z 2812/2912 13006KT P6SM SCT250
     FM290400 14005KT P6SM SCT150 BKN250=



000
FTUS41 KILN 281137
TAFLCK
TAF
KLCK 281137Z 2812/2912 12005KT P6SM SCT250
     FM290400 14005KT P6SM SCT150 BKN250=



000
FTUS41 KILN 281137
TAFCVG
TAF
KCVG 281137Z 2812/2918 12004KT P6SM SCT250
      TEMPO 2812/2813 5SM BR
     FM290000 10004KT P6SM SCT250
     FM290600 12004KT P6SM BKN180 OVC250
      TEMPO 2910/2914 16005KT BKN050
     FM291400 20006KT P6SM SCT030 BKN200=



000
FTUS41 KILN 281137
TAFILN
TAF
KILN 281137Z 2812/2912 14005KT P6SM SCT250
      TEMPO 2812/2813 3SM BR
     FM290400 14005KT P6SM SCT150 BKN250=



000
FTUS41 KILN 281137
TAFCMH
TAF
KCMH 281137Z 2812/2912 12005KT P6SM SCT250
     FM290400 14005KT P6SM SCT150 BKN250=



000
FTUS41 KILN 281137
TAFLCK
TAF
KLCK 281137Z 2812/2912 12005KT P6SM SCT250
     FM290400 14005KT P6SM SCT150 BKN250=



000
FTUS41 KILN 281137
TAFCMH
TAF
KCMH 281137Z 2812/2912 12005KT P6SM SCT250
     FM290400 14005KT P6SM SCT150 BKN250=



000
FTUS41 KILN 281137
TAFILN
TAF
KILN 281137Z 2812/2912 14005KT P6SM SCT250
      TEMPO 2812/2813 3SM BR
     FM290400 14005KT P6SM SCT150 BKN250=



000
FTUS41 KILN 281137
TAFLUK
TAF
KLUK 281137Z 2812/2912 12004KT P6SM SCT250
      TEMPO 2812/2813 3SM BR
     FM290000 00000KT P6SM SCT250
      TEMPO 2910/2912 16005KT BKN050=



000
FTUS41 KILN 281137
TAFCVG
TAF
KCVG 281137Z 2812/2918 12004KT P6SM SCT250
      TEMPO 2812/2813 5SM BR
     FM290000 10004KT P6SM SCT250
     FM290600 12004KT P6SM BKN180 OVC250
      TEMPO 2910/2914 16005KT BKN050
     FM291400 20006KT P6SM SCT030 BKN200=



000
FTUS41 KILN 281137
TAFDAY
TAF
KDAY 281137Z 2812/2912 13006KT P6SM SCT250
     FM290400 14005KT P6SM SCT150 BKN250=



000
FTUS41 KILN 280858 AAA
TAFCVG
TAF AMD
KCVG 280858Z 2809/2912 12004KT P6SM SCT250
     FM290000 10004KT P6SM BKN250
     FM290600 12004KT P6SM BKN150 OVC250=



000
FTUS41 KILN 280750 AAA
TAFLUK
TAF AMD
KLUK 280750Z 2808/2906 00000KT 2SM BR SKC
      TEMPO 2808/2812 3/4SM BR VV002
     FM281300 12004KT P6SM SCT250
     FM290000 00000KT P6SM BKN250=



000
FTUS41 KILN 280539
TAFLUK
TAF
KLUK 280539Z 2806/2906 00000KT 2SM BR SKC
      TEMPO 2808/2812 1SM BR
     FM281300 12004KT P6SM SCT250
     FM290000 00000KT P6SM BKN250=



000
FTUS41 KILN 280539
TAFLCK
TAF
KLCK 280539Z 2806/2906 VRB02KT P6SM SKC
      TEMPO 2809/2812 4SM BR
     FM281200 12005KT P6SM BKN250=



000
FTUS41 KILN 280539
TAFCVG
TAF
KCVG 280539Z 2806/2912 12004KT P6SM SCT250
      TEMPO 2810/2812 5SM BR
     FM290000 10004KT P6SM BKN250
     FM290600 12004KT P6SM BKN150 OVC250=



000
FTUS41 KILN 280539
TAFILN
TAF
KILN 280539Z 2806/2906 00000KT P6SM SKC
      TEMPO 2808/2812 4SM BR SCT250
     FM281200 14005KT P6SM BKN250=



000
FTUS41 KILN 280539
TAFCMH
TAF
KCMH 280539Z 2806/2906 VRB02KT P6SM SKC
      TEMPO 2809/2812 4SM BR
     FM281200 12005KT P6SM BKN250=



000
FTUS41 KILN 280539
TAFLUK
TAF
KLUK 280539Z 2806/2906 00000KT 2SM BR SKC
      TEMPO 2808/2812 1SM BR
     FM281300 12004KT P6SM SCT250
     FM290000 00000KT P6SM BKN250=



000
FTUS41 KILN 280539
TAFDAY
TAF
KDAY 280539Z 2806/2906 09003KT P6SM SKC
      TEMPO 2810/2812 5SM BR SCT250
     FM281200 13006KT P6SM BKN250=



000
FTUS41 KILN 280539
TAFCMH
TAF
KCMH 280539Z 2806/2906 VRB02KT P6SM SKC
      TEMPO 2809/2812 4SM BR
     FM281200 12005KT P6SM BKN250=



000
FTUS41 KILN 280539
TAFDAY
TAF
KDAY 280539Z 2806/2906 09003KT P6SM SKC
      TEMPO 2810/2812 5SM BR SCT250
     FM281200 13006KT P6SM BKN250=



000
FTUS41 KILN 280539
TAFLCK
TAF
KLCK 280539Z 2806/2906 VRB02KT P6SM SKC
      TEMPO 2809/2812 4SM BR
     FM281200 12005KT P6SM BKN250=



000
FTUS41 KILN 280539
TAFILN
TAF
KILN 280539Z 2806/2906 00000KT P6SM SKC
      TEMPO 2808/2812 4SM BR SCT250
     FM281200 14005KT P6SM BKN250=



000
FTUS41 KILN 280539
TAFCVG
TAF
KCVG 280539Z 2806/2912 12004KT P6SM SCT250
      TEMPO 2810/2812 5SM BR
     FM290000 10004KT P6SM BKN250
     FM290600 12004KT P6SM BKN150 OVC250=



000
FTUS41 KILN 272334
TAFLCK
TAF
KLCK 272334Z 2800/2824 00000KT P6SM SCT070
     FM280300 00000KT P6SM SKC
     FM280900 VRB02KT 4SM BR SKC
     FM281300 13005KT P6SM BKN250=



000
FTUS41 KILN 272334
TAFCVG
TAF
KCVG 272334Z 2800/2906 06003KT P6SM SCT060
     FM281000 08003KT 5SM BR SCT250
     FM281300 12006KT P6SM SCT250
     FM290000 10004KT P6SM BKN250=



000
FTUS41 KILN 272334
TAFLUK
TAF
KLUK 272334Z 2800/2824 00000KT P6SM FEW060
     FM280400 00000KT 3SM BR SCT250
     FM280700 00000KT 1SM BR SCT250
     FM281300 12004KT P6SM SCT250=



000
FTUS41 KILN 272334
TAFILN
TAF
KILN 272334Z 2800/2824 00000KT P6SM SCT060
     FM280800 00000KT 4SM BR SCT250
     FM281000 00000KT 2SM BR SCT250
     FM281300 14005KT P6SM SCT250=



000
FTUS41 KILN 272334
TAFDAY
TAF
KDAY 272334Z 2800/2824 VRB03KT P6SM FEW045 SCT060
     FM281000 09003KT 5SM BR SCT250
     FM281300 13006KT P6SM BKN250=



000
FTUS41 KILN 272334
TAFCMH
TAF
KCMH 272334Z 2800/2824 04003KT P6SM FEW050 SCT070
     FM280300 VRB02KT P6SM SKC
     FM280900 VRB02KT 4SM BR SKC
     FM281300 13005KT P6SM BKN250=



000
FTUS41 KILN 272334
TAFCVG
TAF
KCVG 272334Z 2800/2906 06003KT P6SM SCT060
     FM281000 08003KT 5SM BR SCT250
     FM281300 12006KT P6SM SCT250
     FM290000 10004KT P6SM BKN250=



000
FTUS41 KILN 272334
TAFLUK
TAF
KLUK 272334Z 2800/2824 00000KT P6SM FEW060
     FM280400 00000KT 3SM BR SCT250
     FM280700 00000KT 1SM BR SCT250
     FM281300 12004KT P6SM SCT250=



000
FTUS41 KILN 272334
TAFDAY
TAF
KDAY 272334Z 2800/2824 VRB03KT P6SM FEW045 SCT060
     FM281000 09003KT 5SM BR SCT250
     FM281300 13006KT P6SM BKN250=



000
FTUS41 KILN 272334
TAFILN
TAF
KILN 272334Z 2800/2824 00000KT P6SM SCT060
     FM280800 00000KT 4SM BR SCT250
     FM281000 00000KT 2SM BR SCT250
     FM281300 14005KT P6SM SCT250=



000
FTUS41 KILN 272334
TAFLCK
TAF
KLCK 272334Z 2800/2824 00000KT P6SM SCT070
     FM280300 00000KT P6SM SKC
     FM280900 VRB02KT 4SM BR SKC
     FM281300 13005KT P6SM BKN250=



000
FTUS41 KILN 272334
TAFCMH
TAF
KCMH 272334Z 2800/2824 04003KT P6SM FEW050 SCT070
     FM280300 VRB02KT P6SM SKC
     FM280900 VRB02KT 4SM BR SKC
     FM281300 13005KT P6SM BKN250=



000
FTUS41 KILN 272058 AAA
TAFDAY
TAF AMD
KDAY 272058Z 2721/2818 07004KT P6SM BKN045
     FM272300 04005KT P6SM SCT050
     FM280000 07004KT P6SM SKC
     FM281000 09003KT 5SM BR SKC
     FM281300 14005KT P6SM SKC=



000
FTUS41 KILN 272058 AAA
TAFLUK
TAF AMD
KLUK 272058Z 2721/2818 36003KT P6SM BKN060
     FM272200 03005KT P6SM SCT050
     FM280000 00000KT P6SM SKC
     FM280400 00000KT 3SM BR SKC
     FM280700 00000KT 1SM BR SKC
     FM281300 12004KT P6SM SKC=



000
FTUS41 KILN 272058 AAA
TAFILN
TAF AMD
KILN 272058Z 2721/2818 VRB06KT P6SM SCT040
     FM272300 04005KT P6SM SCT050
     FM280000 06003KT P6SM SKC
     FM280800 VRB02KT 4SM BR SKC
     FM281000 VRB02KT 2SM BR SKC
     FM281300 13005KT P6SM SKC=



000
FTUS41 KILN 272058 AAA
TAFCMH
TAF AMD
KCMH 272058Z 2721/2818 07006KT P6SM SCT050 SCT200
     FM280000 07004KT P6SM SCT050
     FM280300 VRB02KT P6SM SKC
     FM281000 VRB02KT P6SM SKC
     FM281300 13005KT P6SM SCT250=



000
FTUS41 KILN 272058 AAA
TAFLCK
TAF AMD
KLCK 272058Z 2721/2818 07006KT P6SM SCT045 BKN060
     FM280000 06004KT P6SM SCT050
     FM280300 VRB02KT P6SM SKC
     FM280900 VRB02KT 4SM BR SKC
     FM281300 13005KT P6SM SCT250=



000
FTUS41 KILN 272058 AAA
TAFCVG
TAF AMD
KCVG 272058Z 2721/2824 06008KT P6SM BKN050
     FM272200 03006KT P6SM SCT050
     FM280000 07003KT P6SM SKC
     FM281000 08003KT 5SM BR SKC
     FM281300 11006KT P6SM SKC
     FM281700 14006KT P6SM SCT250=



000
FTUS41 KILN 272058 AAA
TAFDAY
TAF AMD
KDAY 272058Z 2721/2818 07004KT P6SM BKN045
     FM272300 04005KT P6SM SCT050
     FM280000 07004KT P6SM SKC
     FM281000 09003KT 5SM BR SKC
     FM281300 14005KT P6SM SKC=



000
FTUS41 KILN 272058 AAA
TAFILN
TAF AMD
KILN 272058Z 2721/2818 VRB06KT P6SM SCT040
     FM272300 04005KT P6SM SCT050
     FM280000 06003KT P6SM SKC
     FM280800 VRB02KT 4SM BR SKC
     FM281000 VRB02KT 2SM BR SKC
     FM281300 13005KT P6SM SKC=



000
FTUS41 KILN 272058 AAA
TAFLUK
TAF AMD
KLUK 272058Z 2721/2818 36003KT P6SM BKN060
     FM272200 03005KT P6SM SCT050
     FM280000 00000KT P6SM SKC
     FM280400 00000KT 3SM BR SKC
     FM280700 00000KT 1SM BR SKC
     FM281300 12004KT P6SM SKC=



000
FTUS41 KILN 272058 AAA
TAFCMH
TAF AMD
KCMH 272058Z 2721/2818 07006KT P6SM SCT050 SCT200
     FM280000 07004KT P6SM SCT050
     FM280300 VRB02KT P6SM SKC
     FM281000 VRB02KT P6SM SKC
     FM281300 13005KT P6SM SCT250=



000
FTUS41 KILN 272058 AAA
TAFLCK
TAF AMD
KLCK 272058Z 2721/2818 07006KT P6SM SCT045 BKN060
     FM280000 06004KT P6SM SCT050
     FM280300 VRB02KT P6SM SKC
     FM280900 VRB02KT 4SM BR SKC
     FM281300 13005KT P6SM SCT250=



000
FTUS41 KILN 272058 AAA
TAFCVG
TAF AMD
KCVG 272058Z 2721/2824 06008KT P6SM BKN050
     FM272200 03006KT P6SM SCT050
     FM280000 07003KT P6SM SKC
     FM281000 08003KT 5SM BR SKC
     FM281300 11006KT P6SM SKC
     FM281700 14006KT P6SM SCT250=



    US Dept of Commerce
    National Oceanic and Atmospheric Administration
    National Weather Service
    1325 East West Highway
    Silver Spring, MD 20910
    Page Author: NWS Internet Services Team
Disclaimer
Information Quality
Credits
Glossary
Privacy Policy
Freedom of Information Act (FOIA)
About Us
Career Opportunities